sensor_id;sensor_type;location;lat;lon;timestamp;temperature;humidity
4293;DHT22;2160;51.172;6.808;2022-07-18T04:01:12;20.60;97.30
4293;DHT22;2160;51.172;6.808;2022-07-18T04:03:39;20.60;97.30
4293;DHT22;2160;51.172;6.808;2022-07-18T04:06:06;20.60;97.40
4293;DHT22;2160;51.172;6.808;2022-07-18T04:08:33;20.60;97.50
4293;DHT22;2160;51.172;6.808;2022-07-18T04:11:00;20.70;97.70
4293;DHT22;2160;51.172;6.808;2022-07-18T04:13:27;20.60;97.60
4293;DHT22;2160;51.172;6.808;2022-07-18T04:15:53;20.60;97.80
4293;DHT22;2160;51.172;6.808;2022-07-18T04:18:22;20.40;98.00
4293;DHT22;2160;51.172;6.808;2022-07-18T04:20:49;20.50;98.20
4293;DHT22;2160;51.172;6.808;2022-07-18T04:23:16;20.50;98.20
4293;DHT22;2160;51.172;6.808;2022-07-18T04:25:44;20.60;98.60
4293;DHT22;2160;51.172;6.808;2022-07-18T04:28:12;20.60;98.60
4293;DHT22;2160;51.172;6.808;2022-07-18T04:30:40;20.60;98.40
4293;DHT22;2160;51.172;6.808;2022-07-18T04:33:09;20.60;98.40
4293;DHT22;2160;51.172;6.808;2022-07-18T04:35:39;20.60;98.70
4293;DHT22;2160;51.172;6.808;2022-07-18T04:38:08;20.60;98.90
4293;DHT22;2160;51.172;6.808;2022-07-18T04:40:36;20.50;98.70
4293;DHT22;2160;51.172;6.808;2022-07-18T04:43:03;20.50;98.80
4293;DHT22;2160;51.172;6.808;2022-07-18T04:45:30;20.50;98.70
4293;DHT22;2160;51.172;6.808;2022-07-18T04:47:57;20.60;98.30
4293;DHT22;2160;51.172;6.808;2022-07-18T04:50:25;20.60;98.40
4293;DHT22;2160;51.172;6.808;2022-07-18T04:52:53;20.60;97.90
4293;DHT22;2160;51.172;6.808;2022-07-18T04:55:21;20.50;98.00
4293;DHT22;2160;51.172;6.808;2022-07-18T04:57:48;20.60;98.10
4293;DHT22;2160;51.172;6.808;2022-07-18T05:00:16;20.60;98.10
4293;DHT22;2160;51.172;6.808;2022-07-18T05:02:46;20.70;98.00
4293;DHT22;2160;51.172;6.808;2022-07-18T05:05:14;20.70;97.90
4293;DHT22;2160;51.172;6.808;2022-07-18T05:07:43;20.70;97.60
4293;DHT22;2160;51.172;6.808;2022-07-18T05:10:13;20.90;96.90
4293;DHT22;2160;51.172;6.808;2022-07-18T05:12:43;20.80;96.60
4293;DHT22;2160;51.172;6.808;2022-07-18T05:15:12;20.90;96.20
4293;DHT22;2160;51.172;6.808;2022-07-18T05:17:39;21.00;95.60
4293;DHT22;2160;51.172;6.808;2022-07-18T05:20:09;21.10;95.30
4293;DHT22;2160;51.172;6.808;2022-07-18T05:22:37;21.10;95.50
4293;DHT22;2160;51.172;6.808;2022-07-18T05:25:05;21.10;95.10
4293;DHT22;2160;51.172;6.808;2022-07-18T05:27:34;21.20;94.90
4293;DHT22;2160;51.172;6.808;2022-07-18T05:30:02;21.20;94.90
4293;DHT22;2160;51.172;6.808;2022-07-18T05:32:29;21.20;93.80
4293;DHT22;2160;51.172;6.808;2022-07-18T05:34:56;21.20;93.70
4293;DHT22;2160;51.172;6.808;2022-07-18T05:37:23;21.40;93.10
4293;DHT22;2160;51.172;6.808;2022-07-18T05:39:50;21.60;92.10
4293;DHT22;2160;51.172;6.808;2022-07-18T05:42:18;21.50;91.80
4293;DHT22;2160;51.172;6.808;2022-07-18T05:44:46;21.40;92.80
4293;DHT22;2160;51.172;6.808;2022-07-18T05:47:13;21.40;92.80
4293;DHT22;2160;51.172;6.808;2022-07-18T05:49:40;21.40;92.20
4293;DHT22;2160;51.172;6.808;2022-07-18T05:52:07;21.60;91.50
4293;DHT22;2160;51.172;6.808;2022-07-18T05:54:34;21.60;90.40
4293;DHT22;2160;51.172;6.808;2022-07-18T05:57:01;21.80;90.90
4293;DHT22;2160;51.172;6.808;2022-07-18T05:59:28;21.90;90.80
4293;DHT22;2160;51.172;6.808;2022-07-18T06:01:56;22.10;90.00
4293;DHT22;2160;51.172;6.808;2022-07-18T06:04:23;22.20;87.80
4293;DHT22;2160;51.172;6.808;2022-07-18T06:06:50;22.40;86.80
4293;DHT22;2160;51.172;6.808;2022-07-18T06:09:17;22.50;87.50
4293;DHT22;2160;51.172;6.808;2022-07-18T06:11:44;22.50;86.00
4293;DHT22;2160;51.172;6.808;2022-07-18T06:14:12;22.50;84.50
4293;DHT22;2160;51.172;6.808;2022-07-18T06:16:38;22.60;84.60
4293;DHT22;2160;51.172;6.808;2022-07-18T06:19:07;22.60;85.60
4293;DHT22;2160;51.172;6.808;2022-07-18T06:21:34;22.70;84.30
4293;DHT22;2160;51.172;6.808;2022-07-18T06:24:01;22.70;85.60
4293;DHT22;2160;51.172;6.808;2022-07-18T06:26:28;22.60;85.80
4293;DHT22;2160;51.172;6.808;2022-07-18T06:28:54;22.70;85.90
4293;DHT22;2160;51.172;6.808;2022-07-18T06:31:21;22.70;84.00
4293;DHT22;2160;51.172;6.808;2022-07-18T06:33:48;22.60;85.70
4293;DHT22;2160;51.172;6.808;2022-07-18T06:36:17;22.60;83.60
4293;DHT22;2160;51.172;6.808;2022-07-18T06:38:44;22.60;83.20
4293;DHT22;2160;51.172;6.808;2022-07-18T06:41:11;22.90;82.20
4293;DHT22;2160;51.172;6.808;2022-07-18T06:43:38;23.00;81.60
4293;DHT22;2160;51.172;6.808;2022-07-18T06:46:06;23.10;80.50
4293;DHT22;2160;51.172;6.808;2022-07-18T06:48:34;23.20;78.50
4293;DHT22;2160;51.172;6.808;2022-07-18T06:51:01;23.30;78.60
4293;DHT22;2160;51.172;6.808;2022-07-18T06:53:31;23.20;78.30
4293;DHT22;2160;51.172;6.808;2022-07-18T06:55:58;23.30;78.20
4293;DHT22;2160;51.172;6.808;2022-07-18T06:58:28;23.30;76.60
4293;DHT22;2160;51.172;6.808;2022-07-18T07:00:56;23.20;76.50
4293;DHT22;2160;51.172;6.808;2022-07-18T07:03:23;23.20;76.40
4293;DHT22;2160;51.172;6.808;2022-07-18T07:05:50;23.30;76.80
4293;DHT22;2160;51.172;6.808;2022-07-18T07:08:17;23.60;75.50
4293;DHT22;2160;51.172;6.808;2022-07-18T07:10:46;23.90;75.20
4293;DHT22;2160;51.172;6.808;2022-07-18T07:13:13;24.10;73.00
4293;DHT22;2160;51.172;6.808;2022-07-18T07:15:40;24.20;72.30
4293;DHT22;2160;51.172;6.808;2022-07-18T07:18:08;24.40;73.10
4293;DHT22;2160;51.172;6.808;2022-07-18T07:20:35;24.50;69.80
4293;DHT22;2160;51.172;6.808;2022-07-18T07:23:02;24.50;70.40
4293;DHT22;2160;51.172;6.808;2022-07-18T07:25:33;24.60;69.60
4293;DHT22;2160;51.172;6.808;2022-07-18T07:28:02;24.40;70.00
4293;DHT22;2160;51.172;6.808;2022-07-18T07:30:29;24.50;68.60
4293;DHT22;2160;51.172;6.808;2022-07-18T07:32:56;24.80;67.60
4293;DHT22;2160;51.172;6.808;2022-07-18T07:35:23;25.00;68.00
4293;DHT22;2160;51.172;6.808;2022-07-18T07:37:52;25.10;66.70
4293;DHT22;2160;51.172;6.808;2022-07-18T07:40:19;25.20;66.10
4293;DHT22;2160;51.172;6.808;2022-07-18T07:42:46;25.20;65.90
4293;DHT22;2160;51.172;6.808;2022-07-18T07:45:15;25.50;64.90
4293;DHT22;2160;51.172;6.808;2022-07-18T07:47:42;25.50;63.40
4293;DHT22;2160;51.172;6.808;2022-07-18T07:50:10;25.60;62.70
4293;DHT22;2160;51.172;6.808;2022-07-18T07:52:38;25.70;63.20
4293;DHT22;2160;51.172;6.808;2022-07-18T07:55:05;25.70;64.80
4293;DHT22;2160;51.172;6.808;2022-07-18T07:57:32;25.90;62.00
4293;DHT22;2160;51.172;6.808;2022-07-18T08:00:04;26.00;61.30
4293;DHT22;2160;51.172;6.808;2022-07-18T08:02:49;26.10;59.90
4293;DHT22;2160;51.172;6.808;2022-07-18T08:05:17;26.10;61.40
4293;DHT22;2160;51.172;6.808;2022-07-18T08:07:44;26.10;60.60
4293;DHT22;2160;51.172;6.808;2022-07-18T08:10:11;26.10;61.00
4293;DHT22;2160;51.172;6.808;2022-07-18T08:12:38;26.30;59.70
4293;DHT22;2160;51.172;6.808;2022-07-18T08:15:06;26.50;61.10
4293;DHT22;2160;51.172;6.808;2022-07-18T08:17:33;26.60;59.20
4293;DHT22;2160;51.172;6.808;2022-07-18T08:20:01;26.70;58.30
4293;DHT22;2160;51.172;6.808;2022-07-18T08:22:29;26.70;58.80
4293;DHT22;2160;51.172;6.808;2022-07-18T08:24:56;26.60;58.40
4293;DHT22;2160;51.172;6.808;2022-07-18T08:27:23;26.60;58.30
4293;DHT22;2160;51.172;6.808;2022-07-18T08:29:50;26.90;58.80
4293;DHT22;2160;51.172;6.808;2022-07-18T08:32:17;26.80;59.80
4293;DHT22;2160;51.172;6.808;2022-07-18T08:34:44;26.70;58.80
4293;DHT22;2160;51.172;6.808;2022-07-18T08:37:12;27.00;59.30
4293;DHT22;2160;51.172;6.808;2022-07-18T08:39:39;27.20;57.90
4293;DHT22;2160;51.172;6.808;2022-07-18T08:42:07;27.50;57.60
4293;DHT22;2160;51.172;6.808;2022-07-18T08:44:36;27.50;57.10
4293;DHT22;2160;51.172;6.808;2022-07-18T08:47:06;27.60;57.10
4293;DHT22;2160;51.172;6.808;2022-07-18T08:49:35;27.80;57.10
4293;DHT22;2160;51.172;6.808;2022-07-18T08:52:02;27.60;54.70
4293;DHT22;2160;51.172;6.808;2022-07-18T08:54:31;27.70;56.60
4293;DHT22;2160;51.172;6.808;2022-07-18T08:56:58;27.90;57.50
4293;DHT22;2160;51.172;6.808;2022-07-18T08:59:25;28.10;56.00
4293;DHT22;2160;51.172;6.808;2022-07-18T09:01:52;28.20;53.70
4293;DHT22;2160;51.172;6.808;2022-07-18T09:04:31;28.30;54.80
4293;DHT22;2160;51.172;6.808;2022-07-18T09:06:59;28.40;54.50
4293;DHT22;2160;51.172;6.808;2022-07-18T09:09:25;28.50;53.40
4293;DHT22;2160;51.172;6.808;2022-07-18T09:11:55;28.50;54.80
4293;DHT22;2160;51.172;6.808;2022-07-18T09:14:33;28.60;52.90
4293;DHT22;2160;51.172;6.808;2022-07-18T09:17:06;28.60;54.50
4293;DHT22;2160;51.172;6.808;2022-07-18T09:19:33;28.70;53.50
4293;DHT22;2160;51.172;6.808;2022-07-18T09:22:14;28.70;52.70
4293;DHT22;2160;51.172;6.808;2022-07-18T09:24:58;28.70;52.30
4293;DHT22;2160;51.172;6.808;2022-07-18T09:27:30;28.70;52.90
4293;DHT22;2160;51.172;6.808;2022-07-18T09:30:23;29.10;51.20
4293;DHT22;2160;51.172;6.808;2022-07-18T09:32:53;29.40;51.10
4293;DHT22;2160;51.172;6.808;2022-07-18T09:35:23;29.50;51.10
4293;DHT22;2160;51.172;6.808;2022-07-18T09:37:58;29.60;50.90
4293;DHT22;2160;51.172;6.808;2022-07-18T09:40:30;29.70;51.00
4293;DHT22;2160;51.172;6.808;2022-07-18T09:43:00;29.80;49.30
4293;DHT22;2160;51.172;6.808;2022-07-18T09:45:29;29.90;49.90
4293;DHT22;2160;51.172;6.808;2022-07-18T09:47:58;30.10;48.00
4293;DHT22;2160;51.172;6.808;2022-07-18T09:50:31;30.20;47.90
4293;DHT22;2160;51.172;6.808;2022-07-18T09:53:11;30.30;45.70
4293;DHT22;2160;51.172;6.808;2022-07-18T09:55:46;30.40;45.50
4293;DHT22;2160;51.172;6.808;2022-07-18T09:58:17;30.50;44.70
4293;DHT22;2160;51.172;6.808;2022-07-18T10:00:48;30.60;43.90
4293;DHT22;2160;51.172;6.808;2022-07-18T10:03:17;30.60;44.30
4293;DHT22;2160;51.172;6.808;2022-07-18T10:05:45;30.60;44.60
4293;DHT22;2160;51.172;6.808;2022-07-18T10:08:14;30.70;43.20
4293;DHT22;2160;51.172;6.808;2022-07-18T10:10:42;30.80;43.40
4293;DHT22;2160;51.172;6.808;2022-07-18T10:13:10;30.90;43.80
4293;DHT22;2160;51.172;6.808;2022-07-18T10:15:40;30.90;42.00
4293;DHT22;2160;51.172;6.808;2022-07-18T10:18:10;31.10;41.50
4293;DHT22;2160;51.172;6.808;2022-07-18T10:20:39;31.20;41.30
4293;DHT22;2160;51.172;6.808;2022-07-18T10:23:09;31.20;41.30
4293;DHT22;2160;51.172;6.808;2022-07-18T10:25:37;31.30;41.40
4293;DHT22;2160;51.172;6.808;2022-07-18T10:28:07;31.50;37.70
4293;DHT22;2160;51.172;6.808;2022-07-18T10:30:43;31.50;38.90
4293;DHT22;2160;51.172;6.808;2022-07-18T10:33:42;31.30;34.20
4293;DHT22;2160;51.172;6.808;2022-07-18T10:36:12;31.30;36.70
4293;DHT22;2160;51.172;6.808;2022-07-18T10:39:03;31.50;35.70
4293;DHT22;2160;51.172;6.808;2022-07-18T10:41:31;31.70;32.30
4293;DHT22;2160;51.172;6.808;2022-07-18T10:43:58;31.90;31.50
4293;DHT22;2160;51.172;6.808;2022-07-18T10:47:06;32.00;31.50
4293;DHT22;2160;51.172;6.808;2022-07-18T10:50:03;32.40;32.20
4293;DHT22;2160;51.172;6.808;2022-07-18T10:52:55;32.60;30.70
4293;DHT22;2160;51.172;6.808;2022-07-18T10:55:30;32.90;30.80
4293;DHT22;2160;51.172;6.808;2022-07-18T10:58:18;32.80;33.10
4293;DHT22;2160;51.172;6.808;2022-07-18T11:00:49;32.90;34.10
4293;DHT22;2160;51.172;6.808;2022-07-18T11:03:26;33.00;32.70
4293;DHT22;2160;51.172;6.808;2022-07-18T11:05:54;33.30;33.40
4293;DHT22;2160;51.172;6.808;2022-07-18T11:08:22;33.50;32.00
4293;DHT22;2160;51.172;6.808;2022-07-18T11:11:07;33.70;30.90
4293;DHT22;2160;51.172;6.808;2022-07-18T11:13:36;33.50;30.00
4293;DHT22;2160;51.172;6.808;2022-07-18T11:16:08;33.40;31.40
4293;DHT22;2160;51.172;6.808;2022-07-18T11:21:37;33.50;30.90
4293;DHT22;2160;51.172;6.808;2022-07-18T11:24:05;33.70;30.70
4293;DHT22;2160;51.172;6.808;2022-07-18T11:26:34;33.90;30.70
4293;DHT22;2160;51.172;6.808;2022-07-18T11:29:03;33.80;30.70
4293;DHT22;2160;51.172;6.808;2022-07-18T11:31:31;33.80;31.00
4293;DHT22;2160;51.172;6.808;2022-07-18T11:34:00;34.20;30.20
4293;DHT22;2160;51.172;6.808;2022-07-18T11:36:29;34.30;29.60
4293;DHT22;2160;51.172;6.808;2022-07-18T11:39:00;34.30;28.40
4293;DHT22;2160;51.172;6.808;2022-07-18T11:41:27;34.30;28.90
4293;DHT22;2160;51.172;6.808;2022-07-18T11:43:56;34.50;29.50
4293;DHT22;2160;51.172;6.808;2022-07-18T11:46:26;34.60;28.50
4293;DHT22;2160;51.172;6.808;2022-07-18T11:48:59;34.90;28.50
4293;DHT22;2160;51.172;6.808;2022-07-18T11:51:33;35.10;28.10
4293;DHT22;2160;51.172;6.808;2022-07-18T11:54:02;34.90;28.40
4293;DHT22;2160;51.172;6.808;2022-07-18T11:56:30;34.90;27.20
4293;DHT22;2160;51.172;6.808;2022-07-18T11:58:57;35.00;28.10
4293;DHT22;2160;51.172;6.808;2022-07-18T12:01:30;34.90;27.80
4293;DHT22;2160;51.172;6.808;2022-07-18T12:03:57;34.80;28.00
4293;DHT22;2160;51.172;6.808;2022-07-18T12:06:24;34.70;28.30
4293;DHT22;2160;51.172;6.808;2022-07-18T12:08:54;35.10;28.80
4293;DHT22;2160;51.172;6.808;2022-07-18T12:11:28;35.50;28.60
4293;DHT22;2160;51.172;6.808;2022-07-18T12:13:57;35.70;28.50
4293;DHT22;2160;51.172;6.808;2022-07-18T12:16:33;35.80;26.40
4293;DHT22;2160;51.172;6.808;2022-07-18T12:19:02;36.00;26.00
4293;DHT22;2160;51.172;6.808;2022-07-18T12:21:42;36.20;25.90
4293;DHT22;2160;51.172;6.808;2022-07-18T12:24:27;36.10;26.80
4293;DHT22;2160;51.172;6.808;2022-07-18T12:27:12;35.40;27.10
4293;DHT22;2160;51.172;6.808;2022-07-18T12:29:59;35.50;27.10
4293;DHT22;2160;51.172;6.808;2022-07-18T12:32:29;35.30;26.70
4293;DHT22;2160;51.172;6.808;2022-07-18T12:34:57;35.40;26.90
4293;DHT22;2160;51.172;6.808;2022-07-18T12:37:25;35.60;26.00
4293;DHT22;2160;51.172;6.808;2022-07-18T12:39:56;35.90;25.50
4293;DHT22;2160;51.172;6.808;2022-07-18T12:42:30;36.20;25.80
4293;DHT22;2160;51.172;6.808;2022-07-18T12:44:57;36.50;26.30
4293;DHT22;2160;51.172;6.808;2022-07-18T12:47:24;36.70;25.60
4293;DHT22;2160;51.172;6.808;2022-07-18T12:49:51;36.90;25.60
4293;DHT22;2160;51.172;6.808;2022-07-18T12:52:19;36.60;24.80
4293;DHT22;2160;51.172;6.808;2022-07-18T12:54:46;36.60;23.40
4293;DHT22;2160;51.172;6.808;2022-07-18T12:57:13;36.80;24.90
4293;DHT22;2160;51.172;6.808;2022-07-18T12:59:42;36.90;24.10
4293;DHT22;2160;51.172;6.808;2022-07-18T13:02:10;37.10;24.70
4293;DHT22;2160;51.172;6.808;2022-07-18T13:04:37;36.70;23.50
4293;DHT22;2160;51.172;6.808;2022-07-18T13:07:03;36.50;23.20
4293;DHT22;2160;51.172;6.808;2022-07-18T13:09:31;36.80;23.80
4293;DHT22;2160;51.172;6.808;2022-07-18T13:11:58;36.90;25.00
4293;DHT22;2160;51.172;6.808;2022-07-18T13:14:26;37.00;24.10
4293;DHT22;2160;51.172;6.808;2022-07-18T13:16:55;37.10;23.40
4293;DHT22;2160;51.172;6.808;2022-07-18T13:19:22;37.10;23.00
4293;DHT22;2160;51.172;6.808;2022-07-18T13:21:49;37.20;22.30
4293;DHT22;2160;51.172;6.808;2022-07-18T13:24:16;37.40;22.60
4293;DHT22;2160;51.172;6.808;2022-07-18T13:26:43;37.40;22.40
4293;DHT22;2160;51.172;6.808;2022-07-18T13:29:10;37.40;22.60
4293;DHT22;2160;51.172;6.808;2022-07-18T13:31:37;37.60;22.50
4293;DHT22;2160;51.172;6.808;2022-07-18T13:34:05;37.50;21.30
4293;DHT22;2160;51.172;6.808;2022-07-18T13:36:32;37.50;21.60
4293;DHT22;2160;51.172;6.808;2022-07-18T13:38:59;37.60;21.30
4293;DHT22;2160;51.172;6.808;2022-07-18T13:41:28;37.70;21.90
4293;DHT22;2160;51.172;6.808;2022-07-18T13:43:55;37.90;22.20
4293;DHT22;2160;51.172;6.808;2022-07-18T13:46:22;37.70;21.80
4293;DHT22;2160;51.172;6.808;2022-07-18T13:48:49;37.40;21.90
4293;DHT22;2160;51.172;6.808;2022-07-18T13:51:17;37.30;23.00
4293;DHT22;2160;51.172;6.808;2022-07-18T13:53:44;37.30;24.60
4293;DHT22;2160;51.172;6.808;2022-07-18T13:56:11;37.40;24.10
4293;DHT22;2160;51.172;6.808;2022-07-18T13:58:38;37.70;23.00
4293;DHT22;2160;51.172;6.808;2022-07-18T14:01:06;37.90;22.20
4293;DHT22;2160;51.172;6.808;2022-07-18T14:03:33;38.10;21.10
4293;DHT22;2160;51.172;6.808;2022-07-18T14:06:00;38.20;21.30
4293;DHT22;2160;51.172;6.808;2022-07-18T14:08:29;38.20;20.30
4293;DHT22;2160;51.172;6.808;2022-07-18T14:10:56;38.30;21.30
4293;DHT22;2160;51.172;6.808;2022-07-18T14:13:22;38.40;21.30
4293;DHT22;2160;51.172;6.808;2022-07-18T14:15:49;38.60;21.30
4293;DHT22;2160;51.172;6.808;2022-07-18T14:18:16;38.50;19.90
4293;DHT22;2160;51.172;6.808;2022-07-18T14:20:43;38.60;20.00
4293;DHT22;2160;51.172;6.808;2022-07-18T14:23:10;38.80;21.00
4293;DHT22;2160;51.172;6.808;2022-07-18T14:25:39;38.80;19.90
4293;DHT22;2160;51.172;6.808;2022-07-18T14:28:06;38.80;20.10
4293;DHT22;2160;51.172;6.808;2022-07-18T14:30:33;38.80;20.10
4293;DHT22;2160;51.172;6.808;2022-07-18T14:33:00;38.90;20.60
4293;DHT22;2160;51.172;6.808;2022-07-18T14:35:27;39.00;20.70
4293;DHT22;2160;51.172;6.808;2022-07-18T14:37:54;39.10;20.20
4293;DHT22;2160;51.172;6.808;2022-07-18T14:40:22;39.20;20.30
4293;DHT22;2160;51.172;6.808;2022-07-18T14:42:50;39.10;20.00
4293;DHT22;2160;51.172;6.808;2022-07-18T14:45:17;38.70;19.80
4293;DHT22;2160;51.172;6.808;2022-07-18T14:47:45;38.70;21.50
4293;DHT22;2160;51.172;6.808;2022-07-18T14:50:13;38.70;20.40
4293;DHT22;2160;51.172;6.808;2022-07-18T14:52:40;38.90;20.00
4293;DHT22;2160;51.172;6.808;2022-07-18T14:55:08;38.90;20.30
4293;DHT22;2160;51.172;6.808;2022-07-18T14:57:35;38.80;20.40
4293;DHT22;2160;51.172;6.808;2022-07-18T15:00:07;38.70;19.60
4293;DHT22;2160;51.172;6.808;2022-07-18T15:02:34;38.60;18.50
4293;DHT22;2160;51.172;6.808;2022-07-18T15:05:02;38.70;19.40
4293;DHT22;2160;51.172;6.808;2022-07-18T15:07:29;38.80;19.90
4293;DHT22;2160;51.172;6.808;2022-07-18T15:09:56;38.90;20.80
4293;DHT22;2160;51.172;6.808;2022-07-18T15:12:23;39.10;19.60
4293;DHT22;2160;51.172;6.808;2022-07-18T15:14:50;39.20;19.00
4293;DHT22;2160;51.172;6.808;2022-07-18T15:17:21;39.10;19.10
4293;DHT22;2160;51.172;6.808;2022-07-18T15:19:48;39.00;19.20
4293;DHT22;2160;51.172;6.808;2022-07-18T15:22:15;39.10;19.40
4293;DHT22;2160;51.172;6.808;2022-07-18T15:24:42;39.00;20.70
4293;DHT22;2160;51.172;6.808;2022-07-18T15:27:09;38.90;20.60
4293;DHT22;2160;51.172;6.808;2022-07-18T15:29:36;38.90;20.80
4293;DHT22;2160;51.172;6.808;2022-07-18T15:32:03;39.00;20.80
4293;DHT22;2160;51.172;6.808;2022-07-18T15:34:35;39.20;19.80
4293;DHT22;2160;51.172;6.808;2022-07-18T15:37:02;39.40;18.80
4293;DHT22;2160;51.172;6.808;2022-07-18T15:39:29;39.50;19.30
4293;DHT22;2160;51.172;6.808;2022-07-18T15:41:56;39.60;18.70
4293;DHT22;2160;51.172;6.808;2022-07-18T15:44:24;39.80;18.60
4293;DHT22;2160;51.172;6.808;2022-07-18T15:46:51;39.90;18.30
4293;DHT22;2160;51.172;6.808;2022-07-18T15:49:18;40.10;18.80
4293;DHT22;2160;51.172;6.808;2022-07-18T15:51:46;39.90;18.20
4293;DHT22;2160;51.172;6.808;2022-07-18T15:54:14;40.10;17.70
4293;DHT22;2160;51.172;6.808;2022-07-18T15:56:41;40.20;17.60
4293;DHT22;2160;51.172;6.808;2022-07-18T15:59:08;40.30;19.50
4293;DHT22;2160;51.172;6.808;2022-07-18T16:01:35;40.20;19.40
4293;DHT22;2160;51.172;6.808;2022-07-18T16:04:02;40.20;18.90
4293;DHT22;2160;51.172;6.808;2022-07-18T16:06:29;39.90;19.90
4293;DHT22;2160;51.172;6.808;2022-07-18T16:08:57;40.10;19.40
4293;DHT22;2160;51.172;6.808;2022-07-18T16:11:24;40.20;17.80
4293;DHT22;2160;51.172;6.808;2022-07-18T16:13:51;40.10;17.50
4293;DHT22;2160;51.172;6.808;2022-07-18T16:16:18;40.20;17.70
4293;DHT22;2160;51.172;6.808;2022-07-18T16:18:45;40.30;17.80
4293;DHT22;2160;51.172;6.808;2022-07-18T16:21:12;40.00;19.60
4293;DHT22;2160;51.172;6.808;2022-07-18T16:23:39;39.50;20.60
4293;DHT22;2160;51.172;6.808;2022-07-18T16:26:09;39.60;19.90
4293;DHT22;2160;51.172;6.808;2022-07-18T16:28:36;39.60;18.40
4293;DHT22;2160;51.172;6.808;2022-07-18T16:31:03;39.20;20.30
4293;DHT22;2160;51.172;6.808;2022-07-18T16:33:30;39.20;20.50
4293;DHT22;2160;51.172;6.808;2022-07-18T16:35:57;39.20;19.50
4293;DHT22;2160;51.172;6.808;2022-07-18T16:38:23;38.90;19.50
4293;DHT22;2160;51.172;6.808;2022-07-18T16:40:51;38.20;19.20
4293;DHT22;2160;51.172;6.808;2022-07-18T16:43:19;38.40;18.40
4293;DHT22;2160;51.172;6.808;2022-07-18T16:45:47;38.40;20.30
4293;DHT22;2160;51.172;6.808;2022-07-18T16:48:15;38.50;20.60
4293;DHT22;2160;51.172;6.808;2022-07-18T16:50:42;38.50;20.70
4293;DHT22;2160;51.172;6.808;2022-07-18T16:53:10;38.50;18.60
4293;DHT22;2160;51.172;6.808;2022-07-18T16:55:37;37.80;22.20
4293;DHT22;2160;51.172;6.808;2022-07-18T16:58:05;36.90;20.50
4293;DHT22;2160;51.172;6.808;2022-07-18T17:00:34;36.60;20.90
4293;DHT22;2160;51.172;6.808;2022-07-18T17:03:02;36.90;22.80
4293;DHT22;2160;51.172;6.808;2022-07-18T17:05:31;36.50;25.30
4293;DHT22;2160;51.172;6.808;2022-07-18T17:07:58;36.50;27.40
4293;DHT22;2160;51.172;6.808;2022-07-18T17:10:25;36.10;25.60
4293;DHT22;2160;51.172;6.808;2022-07-18T17:12:53;36.20;24.70
4293;DHT22;2160;51.172;6.808;2022-07-18T17:15:20;36.40;26.70
4293;DHT22;2160;51.172;6.808;2022-07-18T17:17:49;36.70;27.90
4293;DHT22;2160;51.172;6.808;2022-07-18T17:20:17;36.80;29.40
4293;DHT22;2160;51.172;6.808;2022-07-18T17:22:46;36.90;27.10
4293;DHT22;2160;51.172;6.808;2022-07-18T17:25:13;36.70;25.20
4293;DHT22;2160;51.172;6.808;2022-07-18T17:27:41;36.80;26.90
4293;DHT22;2160;51.172;6.808;2022-07-18T17:30:10;36.60;24.60
4293;DHT22;2160;51.172;6.808;2022-07-18T17:32:37;36.70;24.70
4293;DHT22;2160;51.172;6.808;2022-07-18T17:35:09;36.80;25.20
4293;DHT22;2160;51.172;6.808;2022-07-18T17:37:38;37.10;25.80
4293;DHT22;2160;51.172;6.808;2022-07-18T17:40:07;37.50;22.90
4293;DHT22;2160;51.172;6.808;2022-07-18T17:42:34;38.20;24.60
4293;DHT22;2160;51.172;6.808;2022-07-18T17:45:02;38.80;25.30
4293;DHT22;2160;51.172;6.808;2022-07-18T17:47:30;39.20;25.40
4293;DHT22;2160;51.172;6.808;2022-07-18T17:50:04;39.50;27.00
4293;DHT22;2160;51.172;6.808;2022-07-18T17:52:33;39.60;26.10
4293;DHT22;2160;51.172;6.808;2022-07-18T17:55:01;39.70;24.20
4293;DHT22;2160;51.172;6.808;2022-07-18T17:57:28;39.60;24.20
4293;DHT22;2160;51.172;6.808;2022-07-18T17:59:55;39.40;25.20
4293;DHT22;2160;51.172;6.808;2022-07-18T18:02:22;39.30;26.50
4293;DHT22;2160;51.172;6.808;2022-07-18T18:04:49;39.00;26.50
4293;DHT22;2160;51.172;6.808;2022-07-18T18:07:16;38.80;28.40
4293;DHT22;2160;51.172;6.808;2022-07-18T18:09:44;38.50;27.20
4293;DHT22;2160;51.172;6.808;2022-07-18T18:12:11;38.20;28.10
4293;DHT22;2160;51.172;6.808;2022-07-18T18:14:38;37.90;27.60
4293;DHT22;2160;51.172;6.808;2022-07-18T18:17:05;37.60;28.00
4293;DHT22;2160;51.172;6.808;2022-07-18T18:19:33;37.40;29.40
4293;DHT22;2160;51.172;6.808;2022-07-18T18:22:00;37.10;26.40
4293;DHT22;2160;51.172;6.808;2022-07-18T18:24:29;36.80;30.00
4293;DHT22;2160;51.172;6.808;2022-07-18T18:26:57;36.50;27.00
4293;DHT22;2160;51.172;6.808;2022-07-18T18:29:24;36.30;29.10
4293;DHT22;2160;51.172;6.808;2022-07-18T18:31:51;36.20;30.30
4293;DHT22;2160;51.172;6.808;2022-07-18T18:34:20;36.00;30.80
4293;DHT22;2160;51.172;6.808;2022-07-18T18:36:47;36.00;29.90
4293;DHT22;2160;51.172;6.808;2022-07-18T18:39:25;35.80;29.40
4293;DHT22;2160;51.172;6.808;2022-07-18T18:41:53;35.60;29.70
4293;DHT22;2160;51.172;6.808;2022-07-18T18:44:22;35.50;29.90
4293;DHT22;2160;51.172;6.808;2022-07-18T18:46:49;35.30;29.50
4293;DHT22;2160;51.172;6.808;2022-07-18T18:49:17;35.20;30.40
4293;DHT22;2160;51.172;6.808;2022-07-18T18:51:46;35.10;30.80
4293;DHT22;2160;51.172;6.808;2022-07-18T18:54:14;35.00;31.90
4293;DHT22;2160;51.172;6.808;2022-07-18T18:56:41;34.90;32.20
4293;DHT22;2160;51.172;6.808;2022-07-18T18:59:10;34.80;34.00
4293;DHT22;2160;51.172;6.808;2022-07-18T19:01:39;34.70;33.70
4293;DHT22;2160;51.172;6.808;2022-07-18T19:04:08;34.50;34.70
4293;DHT22;2160;51.172;6.808;2022-07-18T19:06:35;34.40;35.70
4293;DHT22;2160;51.172;6.808;2022-07-18T19:09:03;34.30;37.10
4293;DHT22;2160;51.172;6.808;2022-07-18T19:11:30;34.10;38.00
4293;DHT22;2160;51.172;6.808;2022-07-18T19:13:57;34.00;36.40
4293;DHT22;2160;51.172;6.808;2022-07-18T19:16:24;33.90;37.30
4293;DHT22;2160;51.172;6.808;2022-07-18T19:18:52;33.70;36.70
4293;DHT22;2160;51.172;6.808;2022-07-18T19:21:22;33.60;36.20
4293;DHT22;2160;51.172;6.808;2022-07-18T19:23:49;33.50;36.50
4293;DHT22;2160;51.172;6.808;2022-07-18T19:26:16;33.40;35.10
4293;DHT22;2160;51.172;6.808;2022-07-18T19:28:43;33.30;34.50
4293;DHT22;2160;51.172;6.808;2022-07-18T19:31:10;33.20;33.60
4293;DHT22;2160;51.172;6.808;2022-07-18T19:33:37;33.10;34.30
4293;DHT22;2160;51.172;6.808;2022-07-18T19:36:06;33.00;33.90
4293;DHT22;2160;51.172;6.808;2022-07-18T19:38:33;32.80;34.30
4293;DHT22;2160;51.172;6.808;2022-07-18T19:41:00;32.70;35.50
4293;DHT22;2160;51.172;6.808;2022-07-18T19:43:27;32.60;36.40
4293;DHT22;2160;51.172;6.808;2022-07-18T19:45:54;32.40;36.00
4293;DHT22;2160;51.172;6.808;2022-07-18T19:48:21;32.40;35.20
4293;DHT22;2160;51.172;6.808;2022-07-18T19:50:48;32.20;35.80
4293;DHT22;2160;51.172;6.808;2022-07-18T19:53:16;32.00;35.60
4293;DHT22;2160;51.172;6.808;2022-07-18T19:55:45;31.90;36.00
4293;DHT22;2160;51.172;6.808;2022-07-18T19:58:12;31.70;36.00
4293;DHT22;2160;51.172;6.808;2022-07-18T20:00:39;31.60;36.90
4293;DHT22;2160;51.172;6.808;2022-07-18T20:03:07;31.60;37.50
4293;DHT22;2160;51.172;6.808;2022-07-18T20:05:34;31.50;37.80
4293;DHT22;2160;51.172;6.808;2022-07-18T20:08:02;31.50;37.80
4293;DHT22;2160;51.172;6.808;2022-07-18T20:10:31;31.40;37.30
4293;DHT22;2160;51.172;6.808;2022-07-18T20:13:00;31.30;38.50
4293;DHT22;2160;51.172;6.808;2022-07-18T20:15:28;31.20;38.50